sensor_id;sensor_type;location;lat;lon;timestamp;P1;durP1;ratioP1;P2;durP2;ratioP2
51459;SDS011;37534;39.772;2.718;2023-07-31T00:00:05;9.00;;;4.50;;
51459;SDS011;37534;39.772;2.718;2023-07-31T00:02:31;5.57;;;3.83;;
51459;SDS011;37534;39.772;2.718;2023-07-31T00:04:57;7.53;;;4.45;;
51459;SDS011;37534;39.772;2.718;2023-07-31T00:07:22;5.10;;;3.78;;
51459;SDS011;37534;39.772;2.718;2023-07-31T00:09:48;5.20;;;4.15;;
51459;SDS011;37534;39.772;2.718;2023-07-31T00:12:13;6.65;;;4.55;;
51459;SDS011;37534;39.772;2.718;2023-07-31T00:14:39;6.57;;;4.70;;
51459;SDS011;37534;39.772;2.718;2023-07-31T00:17:04;5.50;;;4.80;;
51459;SDS011;37534;39.772;2.718;2023-07-31T00:19:30;6.55;;;4.45;;
51459;SDS011;37534;39.772;2.718;2023-07-31T00:21:56;8.23;;;4.97;;
51459;SDS011;37534;39.772;2.718;2023-07-31T00:24:21;9.65;;;5.20;;
51459;SDS011;37534;39.772;2.718;2023-07-31T00:26:47;10.05;;;4.60;;
51459;SDS011;37534;39.772;2.718;2023-07-31T00:29:13;9.77;;;5.05;;
51459;SDS011;37534;39.772;2.718;2023-07-31T00:31:38;6.65;;;4.60;;
51459;SDS011;37534;39.772;2.718;2023-07-31T00:34:04;5.13;;;4.60;;
51459;SDS011;37534;39.772;2.718;2023-07-31T00:36:29;8.10;;;4.88;;
51459;SDS011;37534;39.772;2.718;2023-07-31T00:38:55;4.75;;;4.30;;
51459;SDS011;37534;39.772;2.718;2023-07-31T00:41:21;5.65;;;4.32;;
51459;SDS011;37534;39.772;2.718;2023-07-31T00:43:46;7.35;;;5.07;;
51459;SDS011;37534;39.772;2.718;2023-07-31T00:46:12;10.32;;;5.20;;
51459;SDS011;37534;39.772;2.718;2023-07-31T00:48:38;4.45;;;3.60;;
51459;SDS011;37534;39.772;2.718;2023-07-31T00:51:04;5.32;;;4.78;;
51459;SDS011;37534;39.772;2.718;2023-07-31T00:53:30;5.78;;;4.32;;
51459;SDS011;37534;39.772;2.718;2023-07-31T00:55:56;9.60;;;4.95;;
51459;SDS011;37534;39.772;2.718;2023-07-31T00:58:22;11.25;;;4.97;;
51459;SDS011;37534;39.772;2.718;2023-07-31T01:00:49;14.18;;;5.20;;
51459;SDS011;37534;39.772;2.718;2023-07-31T01:03:15;10.13;;;5.20;;
51459;SDS011;37534;39.772;2.718;2023-07-31T01:08:58;7.10;;;4.57;;
51459;SDS011;37534;39.772;2.718;2023-07-31T01:11:28;5.95;;;4.18;;
51459;SDS011;37534;39.772;2.718;2023-07-31T01:13:55;12.00;;;4.40;;
51459;SDS011;37534;39.772;2.718;2023-07-31T01:16:22;12.45;;;5.40;;
51459;SDS011;37534;39.772;2.718;2023-07-31T01:18:47;18.67;;;5.25;;
51459;SDS011;37534;39.772;2.718;2023-07-31T01:26:33;12.70;;;5.03;;
51459;SDS011;37534;39.772;2.718;2023-07-31T01:31:42;8.55;;;5.30;;
51459;SDS011;37534;39.772;2.718;2023-07-31T01:34:13;13.82;;;5.15;;
51459;SDS011;37534;39.772;2.718;2023-07-31T01:36:41;7.13;;;4.70;;
51459;SDS011;37534;39.772;2.718;2023-07-31T01:39:07;4.35;;;3.97;;
51459;SDS011;37534;39.772;2.718;2023-07-31T01:41:32;13.00;;;5.30;;
51459;SDS011;37534;39.772;2.718;2023-07-31T01:43:58;8.45;;;5.07;;
51459;SDS011;37534;39.772;2.718;2023-07-31T01:46:23;5.85;;;4.88;;
51459;SDS011;37534;39.772;2.718;2023-07-31T01:48:49;5.00;;;4.15;;
51459;SDS011;37534;39.772;2.718;2023-07-31T01:51:14;5.95;;;5.13;;
51459;SDS011;37534;39.772;2.718;2023-07-31T01:53:40;7.40;;;4.30;;
51459;SDS011;37534;39.772;2.718;2023-07-31T01:56:06;8.25;;;5.10;;
51459;SDS011;37534;39.772;2.718;2023-07-31T01:58:31;10.00;;;4.70;;
51459;SDS011;37534;39.772;2.718;2023-07-31T02:00:57;7.20;;;5.55;;
51459;SDS011;37534;39.772;2.718;2023-07-31T02:03:22;5.80;;;4.72;;
51459;SDS011;37534;39.772;2.718;2023-07-31T02:05:48;5.35;;;4.70;;
51459;SDS011;37534;39.772;2.718;2023-07-31T02:08:15;8.02;;;4.65;;
51459;SDS011;37534;39.772;2.718;2023-07-31T02:10:41;9.50;;;5.53;;
51459;SDS011;37534;39.772;2.718;2023-07-31T02:13:07;5.63;;;4.55;;
51459;SDS011;37534;39.772;2.718;2023-07-31T02:15:33;7.82;;;5.20;;
51459;SDS011;37534;39.772;2.718;2023-07-31T02:17:59;5.13;;;4.28;;
51459;SDS011;37534;39.772;2.718;2023-07-31T02:20:24;7.75;;;4.57;;
51459;SDS011;37534;39.772;2.718;2023-07-31T02:22:50;6.70;;;4.93;;
51459;SDS011;37534;39.772;2.718;2023-07-31T02:25:16;6.15;;;5.00;;
51459;SDS011;37534;39.772;2.718;2023-07-31T02:27:42;10.02;;;5.35;;
51459;SDS011;37534;39.772;2.718;2023-07-31T02:30:07;7.43;;;4.82;;
51459;SDS011;37534;39.772;2.718;2023-07-31T02:32:33;4.65;;;4.25;;
51459;SDS011;37534;39.772;2.718;2023-07-31T02:34:59;10.20;;;5.63;;
51459;SDS011;37534;39.772;2.718;2023-07-31T02:37:25;6.88;;;4.90;;
51459;SDS011;37534;39.772;2.718;2023-07-31T02:39:51;5.65;;;5.05;;
51459;SDS011;37534;39.772;2.718;2023-07-31T02:42:16;6.53;;;5.03;;
51459;SDS011;37534;39.772;2.718;2023-07-31T02:44:42;9.50;;;4.88;;
51459;SDS011;37534;39.772;2.718;2023-07-31T02:47:08;7.75;;;5.40;;
51459;SDS011;37534;39.772;2.718;2023-07-31T02:49:33;9.55;;;5.65;;
51459;SDS011;37534;39.772;2.718;2023-07-31T02:51:59;6.15;;;5.03;;
51459;SDS011;37534;39.772;2.718;2023-07-31T02:54:24;7.00;;;4.13;;
51459;SDS011;37534;39.772;2.718;2023-07-31T02:56:50;8.30;;;5.72;;
51459;SDS011;37534;39.772;2.718;2023-07-31T02:59:16;9.80;;;5.68;;
51459;SDS011;37534;39.772;2.718;2023-07-31T03:01:42;7.75;;;4.78;;
51459;SDS011;37534;39.772;2.718;2023-07-31T03:04:08;17.95;;;5.47;;
51459;SDS011;37534;39.772;2.718;2023-07-31T03:06:34;13.82;;;5.47;;
51459;SDS011;37534;39.772;2.718;2023-07-31T03:08:59;10.00;;;5.80;;
51459;SDS011;37534;39.772;2.718;2023-07-31T03:11:25;13.20;;;5.82;;
51459;SDS011;37534;39.772;2.718;2023-07-31T03:13:50;7.65;;;5.30;;
51459;SDS011;37534;39.772;2.718;2023-07-31T03:16:16;9.02;;;5.32;;
51459;SDS011;37534;39.772;2.718;2023-07-31T03:18:41;6.00;;;5.40;;
51459;SDS011;37534;39.772;2.718;2023-07-31T03:21:07;5.40;;;4.90;;
51459;SDS011;37534;39.772;2.718;2023-07-31T03:23:32;6.65;;;4.50;;
51459;SDS011;37534;39.772;2.718;2023-07-31T03:26:01;6.13;;;5.53;;
51459;SDS011;37534;39.772;2.718;2023-07-31T03:28:31;5.97;;;5.38;;
51459;SDS011;37534;39.772;2.718;2023-07-31T03:30:56;5.07;;;4.55;;
51459;SDS011;37534;39.772;2.718;2023-07-31T03:33:22;6.40;;;5.15;;
51459;SDS011;37534;39.772;2.718;2023-07-31T03:35:48;6.18;;;4.93;;
51459;SDS011;37534;39.772;2.718;2023-07-31T03:38:13;7.80;;;5.50;;
51459;SDS011;37534;39.772;2.718;2023-07-31T03:40:39;4.75;;;4.28;;
51459;SDS011;37534;39.772;2.718;2023-07-31T03:43:05;6.93;;;5.32;;
51459;SDS011;37534;39.772;2.718;2023-07-31T03:45:30;9.82;;;6.30;;
51459;SDS011;37534;39.772;2.718;2023-07-31T03:47:56;9.13;;;6.07;;
51459;SDS011;37534;39.772;2.718;2023-07-31T03:50:22;5.63;;;4.85;;
51459;SDS011;37534;39.772;2.718;2023-07-31T03:52:47;5.85;;;4.88;;
51459;SDS011;37534;39.772;2.718;2023-07-31T03:55:13;6.70;;;5.18;;
51459;SDS011;37534;39.772;2.718;2023-07-31T03:57:38;12.82;;;5.38;;
51459;SDS011;37534;39.772;2.718;2023-07-31T04:00:04;9.65;;;5.40;;
51459;SDS011;37534;39.772;2.718;2023-07-31T04:02:30;8.13;;;5.20;;
51459;SDS011;37534;39.772;2.718;2023-07-31T04:04:56;9.05;;;5.38;;
51459;SDS011;37534;39.772;2.718;2023-07-31T04:07:21;6.25;;;5.35;;
51459;SDS011;37534;39.772;2.718;2023-07-31T04:09:47;6.60;;;4.88;;
51459;SDS011;37534;39.772;2.718;2023-07-31T04:12:12;8.70;;;5.18;;
51459;SDS011;37534;39.772;2.718;2023-07-31T04:14:38;12.57;;;6.28;;
51459;SDS011;37534;39.772;2.718;2023-07-31T04:17:04;7.57;;;5.07;;
51459;SDS011;37534;39.772;2.718;2023-07-31T04:19:29;7.30;;;5.35;;
51459;SDS011;37534;39.772;2.718;2023-07-31T04:21:55;6.22;;;5.05;;
51459;SDS011;37534;39.772;2.718;2023-07-31T04:24:20;7.28;;;5.32;;
51459;SDS011;37534;39.772;2.718;2023-07-31T04:26:50;8.85;;;6.82;;
51459;SDS011;37534;39.772;2.718;2023-07-31T04:29:16;10.55;;;5.00;;
51459;SDS011;37534;39.772;2.718;2023-07-31T04:31:41;6.38;;;5.15;;
51459;SDS011;37534;39.772;2.718;2023-07-31T04:34:07;5.85;;;4.88;;
51459;SDS011;37534;39.772;2.718;2023-07-31T04:36:33;6.38;;;5.35;;
51459;SDS011;37534;39.772;2.718;2023-07-31T04:38:59;7.50;;;5.18;;
51459;SDS011;37534;39.772;2.718;2023-07-31T04:41:25;5.38;;;4.78;;
51459;SDS011;37534;39.772;2.718;2023-07-31T04:43:50;5.85;;;5.25;;
51459;SDS011;37534;39.772;2.718;2023-07-31T04:46:16;8.13;;;6.78;;
51459;SDS011;37534;39.772;2.718;2023-07-31T04:48:42;13.18;;;6.47;;
51459;SDS011;37534;39.772;2.718;2023-07-31T04:51:07;10.32;;;6.03;;
51459;SDS011;37534;39.772;2.718;2023-07-31T04:53:34;13.82;;;6.35;;
51459;SDS011;37534;39.772;2.718;2023-07-31T04:56:00;8.48;;;6.05;;
51459;SDS011;37534;39.772;2.718;2023-07-31T04:58:26;9.95;;;6.18;;
51459;SDS011;37534;39.772;2.718;2023-07-31T05:00:51;6.22;;;4.88;;
51459;SDS011;37534;39.772;2.718;2023-07-31T05:03:17;7.72;;;5.82;;
51459;SDS011;37534;39.772;2.718;2023-07-31T05:05:42;6.85;;;5.57;;
51459;SDS011;37534;39.772;2.718;2023-07-31T05:08:08;6.28;;;5.68;;
51459;SDS011;37534;39.772;2.718;2023-07-31T05:10:34;8.93;;;5.18;;
51459;SDS011;37534;39.772;2.718;2023-07-31T05:12:59;8.52;;;6.38;;
51459;SDS011;37534;39.772;2.718;2023-07-31T05:15:25;9.25;;;5.60;;
51459;SDS011;37534;39.772;2.718;2023-07-31T05:17:51;8.98;;;6.15;;
51459;SDS011;37534;39.772;2.718;2023-07-31T05:20:17;7.88;;;5.63;;
51459;SDS011;37534;39.772;2.718;2023-07-31T05:22:42;7.65;;;5.82;;
51459;SDS011;37534;39.772;2.718;2023-07-31T05:25:08;7.68;;;5.80;;
51459;SDS011;37534;39.772;2.718;2023-07-31T05:27:34;6.88;;;5.25;;
51459;SDS011;37534;39.772;2.718;2023-07-31T05:29:59;7.68;;;5.88;;
51459;SDS011;37534;39.772;2.718;2023-07-31T05:32:25;6.20;;;5.50;;
51459;SDS011;37534;39.772;2.718;2023-07-31T05:34:51;9.00;;;6.43;;
51459;SDS011;37534;39.772;2.718;2023-07-31T05:37:17;10.77;;;5.72;;
51459;SDS011;37534;39.772;2.718;2023-07-31T05:39:43;7.50;;;5.45;;
51459;SDS011;37534;39.772;2.718;2023-07-31T05:42:08;8.65;;;5.90;;
51459;SDS011;37534;39.772;2.718;2023-07-31T05:44:34;12.48;;;6.53;;
51459;SDS011;37534;39.772;2.718;2023-07-31T05:47:00;8.52;;;6.15;;
51459;SDS011;37534;39.772;2.718;2023-07-31T05:49:25;6.75;;;5.43;;
51459;SDS011;37534;39.772;2.718;2023-07-31T05:51:51;6.90;;;5.38;;
51459;SDS011;37534;39.772;2.718;2023-07-31T05:54:16;10.55;;;5.20;;
51459;SDS011;37534;39.772;2.718;2023-07-31T05:56:42;11.82;;;6.18;;
51459;SDS011;37534;39.772;2.718;2023-07-31T05:59:08;9.82;;;5.57;;
51459;SDS011;37534;39.772;2.718;2023-07-31T06:01:35;12.50;;;7.05;;
51459;SDS011;37534;39.772;2.718;2023-07-31T06:04:00;7.32;;;5.38;;
51459;SDS011;37534;39.772;2.718;2023-07-31T06:06:29;5.82;;;5.20;;
51459;SDS011;37534;39.772;2.718;2023-07-31T06:08:55;11.65;;;5.28;;
51459;SDS011;37534;39.772;2.718;2023-07-31T06:11:21;8.20;;;5.68;;
51459;SDS011;37534;39.772;2.718;2023-07-31T06:13:46;14.23;;;5.97;;
51459;SDS011;37534;39.772;2.718;2023-07-31T06:16:14;6.90;;;5.82;;
51459;SDS011;37534;39.772;2.718;2023-07-31T06:18:40;8.40;;;5.53;;
51459;SDS011;37534;39.772;2.718;2023-07-31T06:21:06;9.45;;;6.45;;
51459;SDS011;37534;39.772;2.718;2023-07-31T06:23:32;12.65;;;5.63;;
51459;SDS011;37534;39.772;2.718;2023-07-31T06:25:58;8.43;;;5.10;;
51459;SDS011;37534;39.772;2.718;2023-07-31T06:28:27;8.70;;;5.43;;
51459;SDS011;37534;39.772;2.718;2023-07-31T06:30:56;6.43;;;5.38;;
51459;SDS011;37534;39.772;2.718;2023-07-31T06:33:26;7.75;;;5.35;;
51459;SDS011;37534;39.772;2.718;2023-07-31T06:35:52;7.82;;;5.18;;
51459;SDS011;37534;39.772;2.718;2023-07-31T06:38:25;9.50;;;5.72;;
51459;SDS011;37534;39.772;2.718;2023-07-31T06:40:52;8.43;;;5.60;;
51459;SDS011;37534;39.772;2.718;2023-07-31T06:43:18;11.52;;;6.75;;
51459;SDS011;37534;39.772;2.718;2023-07-31T06:45:43;7.40;;;6.43;;
51459;SDS011;37534;39.772;2.718;2023-07-31T06:48:09;5.75;;;5.20;;
51459;SDS011;37534;39.772;2.718;2023-07-31T06:50:35;9.73;;;5.82;;
51459;SDS011;37534;39.772;2.718;2023-07-31T06:53:00;9.68;;;6.18;;
51459;SDS011;37534;39.772;2.718;2023-07-31T06:55:26;12.77;;;6.05;;
51459;SDS011;37534;39.772;2.718;2023-07-31T06:57:53;7.80;;;5.88;;
51459;SDS011;37534;39.772;2.718;2023-07-31T07:00:19;9.00;;;5.93;;
51459;SDS011;37534;39.772;2.718;2023-07-31T07:02:46;10.65;;;5.03;;
51459;SDS011;37534;39.772;2.718;2023-07-31T07:05:16;18.50;;;5.47;;
51459;SDS011;37534;39.772;2.718;2023-07-31T07:07:42;17.60;;;5.40;;
51459;SDS011;37534;39.772;2.718;2023-07-31T07:10:08;13.20;;;4.88;;
51459;SDS011;37534;39.772;2.718;2023-07-31T07:12:34;10.95;;;4.63;;
51459;SDS011;37534;39.772;2.718;2023-07-31T07:15:00;4.55;;;3.70;;
51459;SDS011;37534;39.772;2.718;2023-07-31T07:17:27;5.32;;;4.75;;
51459;SDS011;37534;39.772;2.718;2023-07-31T07:19:56;9.52;;;4.47;;
51459;SDS011;37534;39.772;2.718;2023-07-31T07:22:21;3.88;;;3.45;;
51459;SDS011;37534;39.772;2.718;2023-07-31T07:24:47;9.30;;;4.45;;
51459;SDS011;37534;39.772;2.718;2023-07-31T07:27:12;8.15;;;4.68;;
51459;SDS011;37534;39.772;2.718;2023-07-31T07:29:38;5.13;;;3.75;;
51459;SDS011;37534;39.772;2.718;2023-07-31T07:32:04;5.38;;;4.20;;
51459;SDS011;37534;39.772;2.718;2023-07-31T07:34:30;4.60;;;3.55;;
51459;SDS011;37534;39.772;2.718;2023-07-31T07:36:56;9.13;;;4.03;;
51459;SDS011;37534;39.772;2.718;2023-07-31T07:39:21;16.77;;;4.28;;
51459;SDS011;37534;39.772;2.718;2023-07-31T07:41:47;6.32;;;4.25;;
51459;SDS011;37534;39.772;2.718;2023-07-31T07:44:13;5.35;;;3.97;;
51459;SDS011;37534;39.772;2.718;2023-07-31T07:46:39;4.72;;;3.25;;
51459;SDS011;37534;39.772;2.718;2023-07-31T07:49:05;12.55;;;4.07;;
51459;SDS011;37534;39.772;2.718;2023-07-31T07:51:30;6.43;;;3.35;;
51459;SDS011;37534;39.772;2.718;2023-07-31T07:53:57;6.95;;;3.47;;
51459;SDS011;37534;39.772;2.718;2023-07-31T07:56:23;6.43;;;3.50;;
51459;SDS011;37534;39.772;2.718;2023-07-31T07:58:49;5.72;;;3.80;;
51459;SDS011;37534;39.772;2.718;2023-07-31T08:01:18;6.82;;;3.55;;
51459;SDS011;37534;39.772;2.718;2023-07-31T08:03:47;6.38;;;3.42;;
51459;SDS011;37534;39.772;2.718;2023-07-31T08:06:14;4.38;;;2.67;;
51459;SDS011;37534;39.772;2.718;2023-07-31T08:08:40;13.88;;;3.83;;
51459;SDS011;37534;39.772;2.718;2023-07-31T08:11:07;12.02;;;4.20;;
51459;SDS011;37534;39.772;2.718;2023-07-31T08:13:34;4.75;;;3.25;;
51459;SDS011;37534;39.772;2.718;2023-07-31T08:16:01;8.43;;;3.65;;
51459;SDS011;37534;39.772;2.718;2023-07-31T08:18:28;7.40;;;3.25;;
51459;SDS011;37534;39.772;2.718;2023-07-31T08:20:54;5.85;;;3.13;;
51459;SDS011;37534;39.772;2.718;2023-07-31T08:23:20;14.38;;;4.53;;
51459;SDS011;37534;39.772;2.718;2023-07-31T08:25:46;10.75;;;4.03;;
51459;SDS011;37534;39.772;2.718;2023-07-31T08:28:12;4.65;;;3.25;;
51459;SDS011;37534;39.772;2.718;2023-07-31T08:30:37;5.78;;;3.35;;
51459;SDS011;37534;39.772;2.718;2023-07-31T08:33:03;5.28;;;3.40;;
51459;SDS011;37534;39.772;2.718;2023-07-31T08:35:30;9.65;;;4.28;;
51459;SDS011;37534;39.772;2.718;2023-07-31T08:37:59;5.43;;;3.20;;
51459;SDS011;37534;39.772;2.718;2023-07-31T08:40:25;9.65;;;2.83;;
51459;SDS011;37534;39.772;2.718;2023-07-31T08:42:54;3.47;;;3.00;;
51459;SDS011;37534;39.772;2.718;2023-07-31T08:45:27;16.80;;;4.45;;
51459;SDS011;37534;39.772;2.718;2023-07-31T08:47:53;5.10;;;3.50;;
51459;SDS011;37534;39.772;2.718;2023-07-31T08:50:22;6.22;;;3.40;;
51459;SDS011;37534;39.772;2.718;2023-07-31T08:52:49;3.47;;;3.13;;
51459;SDS011;37534;39.772;2.718;2023-07-31T08:55:16;7.32;;;3.65;;
51459;SDS011;37534;39.772;2.718;2023-07-31T08:57:43;5.82;;;2.85;;
51459;SDS011;37534;39.772;2.718;2023-07-31T09:00:10;4.10;;;3.17;;
51459;SDS011;37534;39.772;2.718;2023-07-31T09:03:18;9.45;;;3.42;;
51459;SDS011;37534;39.772;2.718;2023-07-31T09:05:28;5.00;;;3.00;;
51459;SDS011;37534;39.772;2.718;2023-07-31T09:07:57;7.38;;;4.13;;
51459;SDS011;37534;39.772;2.718;2023-07-31T09:10:24;11.27;;;4.05;;
51459;SDS011;37534;39.772;2.718;2023-07-31T09:12:51;8.45;;;3.22;;
51459;SDS011;37534;39.772;2.718;2023-07-31T09:15:20;8.65;;;3.05;;
51459;SDS011;37534;39.772;2.718;2023-07-31T09:17:47;6.22;;;3.72;;
51459;SDS011;37534;39.772;2.718;2023-07-31T09:20:25;6.43;;;3.25;;
51459;SDS011;37534;39.772;2.718;2023-07-31T09:22:51;6.72;;;3.50;;
51459;SDS011;37534;39.772;2.718;2023-07-31T09:27:51;7.53;;;3.40;;
51459;SDS011;37534;39.772;2.718;2023-07-31T09:30:17;6.43;;;3.25;;
51459;SDS011;37534;39.772;2.718;2023-07-31T09:32:45;4.43;;;3.40;;
51459;SDS011;37534;39.772;2.718;2023-07-31T09:35:27;7.53;;;3.78;;
51459;SDS011;37534;39.772;2.718;2023-07-31T09:38:00;5.97;;;3.10;;
51459;SDS011;37534;39.772;2.718;2023-07-31T09:40:33;8.38;;;3.63;;
51459;SDS011;37534;39.772;2.718;2023-07-31T09:43:02;7.47;;;3.95;;
51459;SDS011;37534;39.772;2.718;2023-07-31T09:45:28;6.85;;;4.32;;
51459;SDS011;37534;39.772;2.718;2023-07-31T09:47:55;8.35;;;3.47;;
51459;SDS011;37534;39.772;2.718;2023-07-31T09:50:22;4.63;;;3.33;;
51459;SDS011;37534;39.772;2.718;2023-07-31T09:52:49;5.70;;;3.00;;
51459;SDS011;37534;39.772;2.718;2023-07-31T09:55:15;3.13;;;2.35;;
51459;SDS011;37534;39.772;2.718;2023-07-31T09:57:44;3.95;;;3.33;;
51459;SDS011;37534;39.772;2.718;2023-07-31T10:00:12;10.40;;;3.67;;
51459;SDS011;37534;39.772;2.718;2023-07-31T10:02:39;4.50;;;3.13;;
51459;SDS011;37534;39.772;2.718;2023-07-31T10:05:06;5.43;;;3.53;;
51459;SDS011;37534;39.772;2.718;2023-07-31T10:07:35;4.47;;;3.40;;
51459;SDS011;37534;39.772;2.718;2023-07-31T10:10:06;4.80;;;3.20;;
51459;SDS011;37534;39.772;2.718;2023-07-31T10:12:33;3.78;;;2.92;;
51459;SDS011;37534;39.772;2.718;2023-07-31T10:15:01;8.27;;;3.45;;
51459;SDS011;37534;39.772;2.718;2023-07-31T10:17:27;8.25;;;3.30;;
51459;SDS011;37534;39.772;2.718;2023-07-31T10:19:55;8.57;;;3.53;;
51459;SDS011;37534;39.772;2.718;2023-07-31T10:22:23;7.95;;;3.47;;
51459;SDS011;37534;39.772;2.718;2023-07-31T10:24:50;6.55;;;3.05;;
51459;SDS011;37534;39.772;2.718;2023-07-31T10:27:17;5.53;;;2.83;;
51459;SDS011;37534;39.772;2.718;2023-07-31T10:29:43;3.53;;;2.65;;
51459;SDS011;37534;39.772;2.718;2023-07-31T10:32:12;6.32;;;2.70;;
51459;SDS011;37534;39.772;2.718;2023-07-31T10:34:40;5.10;;;3.20;;
51459;SDS011;37534;39.772;2.718;2023-07-31T10:37:19;4.75;;;2.80;;
51459;SDS011;37534;39.772;2.718;2023-07-31T10:42:38;6.75;;;2.95;;
51459;SDS011;37534;39.772;2.718;2023-07-31T10:45:12;8.02;;;3.35;;
51459;SDS011;37534;39.772;2.718;2023-07-31T10:47:42;5.82;;;3.50;;
51459;SDS011;37534;39.772;2.718;2023-07-31T10:52:50;8.48;;;4.38;;
51459;SDS011;37534;39.772;2.718;2023-07-31T10:55:24;5.60;;;3.08;;
51459;SDS011;37534;39.772;2.718;2023-07-31T10:57:55;12.48;;;3.92;;
51459;SDS011;37534;39.772;2.718;2023-07-31T11:00:27;9.68;;;4.05;;
51459;SDS011;37534;39.772;2.718;2023-07-31T11:05:42;6.45;;;3.60;;
51459;SDS011;37534;39.772;2.718;2023-07-31T11:08:30;5.28;;;3.33;;
51459;SDS011;37534;39.772;2.718;2023-07-31T11:15:58;6.95;;;3.70;;
51459;SDS011;37534;39.772;2.718;2023-07-31T11:18:25;4.15;;;2.75;;
51459;SDS011;37534;39.772;2.718;2023-07-31T11:20:52;4.88;;;3.78;;
51459;SDS011;37534;39.772;2.718;2023-07-31T11:23:18;7.28;;;3.97;;
51459;SDS011;37534;39.772;2.718;2023-07-31T11:25:45;10.05;;;3.60;;
51459;SDS011;37534;39.772;2.718;2023-07-31T11:28:11;8.93;;;3.85;;
51459;SDS011;37534;39.772;2.718;2023-07-31T11:30:38;5.90;;;3.47;;
51459;SDS011;37534;39.772;2.718;2023-07-31T11:33:08;6.75;;;3.47;;
51459;SDS011;37534;39.772;2.718;2023-07-31T11:35:36;7.85;;;4.07;;
51459;SDS011;37534;39.772;2.718;2023-07-31T11:38:12;15.00;;;3.72;;
51459;SDS011;37534;39.772;2.718;2023-07-31T11:40:46;8.93;;;3.63;;
51459;SDS011;37534;39.772;2.718;2023-07-31T11:43:12;7.47;;;3.15;;
51459;SDS011;37534;39.772;2.718;2023-07-31T11:45:42;6.00;;;3.50;;
51459;SDS011;37534;39.772;2.718;2023-07-31T11:48:18;8.77;;;3.25;;
51459;SDS011;37534;39.772;2.718;2023-07-31T11:50:44;9.88;;;3.53;;
51459;SDS011;37534;39.772;2.718;2023-07-31T11:53:11;7.80;;;3.65;;
51459;SDS011;37534;39.772;2.718;2023-07-31T11:55:38;5.88;;;3.10;;
51459;SDS011;37534;39.772;2.718;2023-07-31T11:58:04;6.30;;;3.30;;
51459;SDS011;37534;39.772;2.718;2023-07-31T12:00:30;7.78;;;3.60;;
51459;SDS011;37534;39.772;2.718;2023-07-31T12:02:56;6.28;;;3.13;;
51459;SDS011;37534;39.772;2.718;2023-07-31T12:05:22;6.15;;;3.08;;
51459;SDS011;37534;39.772;2.718;2023-07-31T12:07:52;5.70;;;3.05;;
51459;SDS011;37534;39.772;2.718;2023-07-31T12:10:29;5.90;;;2.88;;
51459;SDS011;37534;39.772;2.718;2023-07-31T12:15:35;4.35;;;2.80;;
51459;SDS011;37534;39.772;2.718;2023-07-31T12:18:10;7.80;;;3.30;;
51459;SDS011;37534;39.772;2.718;2023-07-31T12:20:39;9.10;;;4.18;;
51459;SDS011;37534;39.772;2.718;2023-07-31T12:23:13;9.73;;;3.63;;
51459;SDS011;37534;39.772;2.718;2023-07-31T12:25:40;7.10;;;3.33;;
51459;SDS011;37534;39.772;2.718;2023-07-31T12:28:06;5.90;;;3.38;;
51459;SDS011;37534;39.772;2.718;2023-07-31T12:30:36;6.25;;;2.92;;
51459;SDS011;37534;39.772;2.718;2023-07-31T12:33:06;4.15;;;2.95;;
51459;SDS011;37534;39.772;2.718;2023-07-31T12:35:37;4.63;;;3.00;;
51459;SDS011;37534;39.772;2.718;2023-07-31T12:38:05;8.05;;;3.15;;
51459;SDS011;37534;39.772;2.718;2023-07-31T12:40:31;4.10;;;2.75;;
51459;SDS011;37534;39.772;2.718;2023-07-31T12:42:57;8.15;;;3.20;;
51459;SDS011;37534;39.772;2.718;2023-07-31T12:45:26;11.38;;;4.57;;
51459;SDS011;37534;39.772;2.718;2023-07-31T12:47:52;16.17;;;3.83;;
51459;SDS011;37534;39.772;2.718;2023-07-31T12:50:18;7.78;;;2.38;;
51459;SDS011;37534;39.772;2.718;2023-07-31T12:52:43;5.68;;;3.30;;
51459;SDS011;37534;39.772;2.718;2023-07-31T12:55:09;7.97;;;3.97;;
51459;SDS011;37534;39.772;2.718;2023-07-31T12:57:36;4.10;;;2.75;;
51459;SDS011;37534;39.772;2.718;2023-07-31T13:00:02;4.65;;;3.22;;
51459;SDS011;37534;39.772;2.718;2023-07-31T13:02:28;6.10;;;2.63;;
51459;SDS011;37534;39.772;2.718;2023-07-31T13:04:54;9.45;;;3.15;;
51459;SDS011;37534;39.772;2.718;2023-07-31T13:07:21;6.55;;;2.67;;
51459;SDS011;37534;39.772;2.718;2023-07-31T13:09:48;3.17;;;2.90;;
51459;SDS011;37534;39.772;2.718;2023-07-31T13:12:14;5.40;;;3.38;;
51459;SDS011;37534;39.772;2.718;2023-07-31T13:14:39;3.45;;;2.60;;
51459;SDS011;37534;39.772;2.718;2023-07-31T13:17:05;4.97;;;3.38;;
51459;SDS011;37534;39.772;2.718;2023-07-31T13:19:31;7.35;;;3.10;;
51459;SDS011;37534;39.772;2.718;2023-07-31T13:21:56;9.55;;;2.95;;
51459;SDS011;37534;39.772;2.718;2023-07-31T13:24:22;8.25;;;2.85;;
51459;SDS011;37534;39.772;2.718;2023-07-31T13:26:48;10.55;;;3.03;;
51459;SDS011;37534;39.772;2.718;2023-07-31T13:29:13;4.47;;;2.85;;
51459;SDS011;37534;39.772;2.718;2023-07-31T13:31:39;10.30;;;3.10;;
51459;SDS011;37534;39.772;2.718;2023-07-31T13:34:04;4.47;;;2.20;;
51459;SDS011;37534;39.772;2.718;2023-07-31T13:36:30;3.58;;;2.58;;
51459;SDS011;37534;39.772;2.718;2023-07-31T13:38:55;11.95;;;3.03;;
51459;SDS011;37534;39.772;2.718;2023-07-31T13:41:21;7.03;;;2.97;;
51459;SDS011;37534;39.772;2.718;2023-07-31T13:43:47;8.52;;;3.67;;
51459;SDS011;37534;39.772;2.718;2023-07-31T13:46:12;8.20;;;3.17;;
51459;SDS011;37534;39.772;2.718;2023-07-31T13:48:38;5.45;;;3.55;;
51459;SDS011;37534;39.772;2.718;2023-07-31T13:51:03;7.43;;;2.47;;
51459;SDS011;37534;39.772;2.718;2023-07-31T13:53:29;4.72;;;2.65;;
51459;SDS011;37534;39.772;2.718;2023-07-31T13:55:55;5.30;;;3.17;;
51459;SDS011;37534;39.772;2.718;2023-07-31T13:58:20;6.05;;;2.92;;
51459;SDS011;37534;39.772;2.718;2023-07-31T14:00:46;14.18;;;2.85;;
51459;SDS011;37534;39.772;2.718;2023-07-31T14:03:12;5.43;;;2.75;;
51459;SDS011;37534;39.772;2.718;2023-07-31T14:05:37;8.10;;;3.35;;
51459;SDS011;37534;39.772;2.718;2023-07-31T14:08:03;5.70;;;3.00;;
51459;SDS011;37534;39.772;2.718;2023-07-31T14:10:28;3.97;;;2.22;;
51459;SDS011;37534;39.772;2.718;2023-07-31T14:12:54;5.55;;;3.28;;
51459;SDS011;37534;39.772;2.718;2023-07-31T14:15:20;8.68;;;2.53;;
51459;SDS011;37534;39.772;2.718;2023-07-31T14:17:45;4.45;;;2.35;;
51459;SDS011;37534;39.772;2.718;2023-07-31T14:20:12;9.15;;;3.17;;
51459;SDS011;37534;39.772;2.718;2023-07-31T14:22:38;9.43;;;2.40;;
51459;SDS011;37534;39.772;2.718;2023-07-31T14:25:04;3.28;;;2.55;;
51459;SDS011;37534;39.772;2.718;2023-07-31T14:27:30;9.05;;;3.08;;
51459;SDS011;37534;39.772;2.718;2023-07-31T14:29:55;3.15;;;2.60;;
51459;SDS011;37534;39.772;2.718;2023-07-31T14:32:24;7.10;;;2.47;;
51459;SDS011;37534;39.772;2.718;2023-07-31T14:34:50;8.88;;;2.85;;
51459;SDS011;37534;39.772;2.718;2023-07-31T14:37:16;4.20;;;2.63;;
51459;SDS011;37534;39.772;2.718;2023-07-31T14:39:42;3.97;;;2.70;;
51459;SDS011;37534;39.772;2.718;2023-07-31T14:42:10;3.85;;;2.30;;
51459;SDS011;37534;39.772;2.718;2023-07-31T14:44:36;6.80;;;2.72;;
51459;SDS011;37534;39.772;2.718;2023-07-31T14:47:02;10.48;;;2.63;;
51459;SDS011;37534;39.772;2.718;2023-07-31T14:49:27;5.03;;;2.50;;
51459;SDS011;37534;39.772;2.718;2023-07-31T14:51:53;7.88;;;2.85;;
51459;SDS011;37534;39.772;2.718;2023-07-31T14:54:19;7.38;;;2.78;;
51459;SDS011;37534;39.772;2.718;2023-07-31T14:56:45;4.82;;;2.85;;
51459;SDS011;37534;39.772;2.718;2023-07-31T14:59:10;4.63;;;2.33;;
51459;SDS011;37534;39.772;2.718;2023-07-31T15:01:36;13.35;;;3.00;;
51459;SDS011;37534;39.772;2.718;2023-07-31T15:04:02;5.10;;;2.40;;
51459;SDS011;37534;39.772;2.718;2023-07-31T15:06:28;4.90;;;2.63;;
51459;SDS011;37534;39.772;2.718;2023-07-31T15:08:54;10.52;;;2.63;;
51459;SDS011;37534;39.772;2.718;2023-07-31T15:11:19;5.95;;;2.58;;